Time;durP1;ratioP1;P1;durP2;ratioP2;P2;SDS_P1;SDS_P2;PMS_P1;PMS_P2;Temp;Humidity;BMP_temperature;BMP_pressure;BME280_temperature;BME280_humidity;BME280_pressure;Samples;Min_cycle;Max_cycle;Signal;HPM_P1;HPM_P2
2023/08/19 00:01:26;;;;;;;5.80;3.25;;;25.50;99.90;;;;;;4196706;28;20213;-82
2023/08/19 00:03:27;;;;;;;6.35;3.63;;;25.60;99.90;;;;;;4180276;28;20254;-82
2023/08/19 00:05:28;;;;;;;6.95;3.88;;;25.50;99.90;;;;;;4196827;28;20271;-82
2023/08/19 00:07:28;;;;;;;5.43;3.22;;;25.60;99.90;;;;;;4197986;28;20259;-82
2023/08/19 00:09:31;;;;;;;5.55;3.47;;;25.60;99.90;;;;;;4196821;28;20194;-82
2023/08/19 00:11:32;;;;;;;9.00;4.03;;;25.60;99.90;;;;;;4196717;28;20170;-82
2023/08/19 00:13:34;;;;;;;6.60;3.80;;;25.60;99.90;;;;;;4196341;28;20508;-82
2023/08/19 00:15:35;;;;;;;6.05;3.25;;;25.60;99.90;;;;;;4196517;28;20170;-82
2023/08/19 00:17:35;;;;;;;7.90;4.18;;;25.60;99.90;;;;;;4196565;28;20221;-83
2023/08/19 00:19:36;;;;;;;4.97;3.17;;;25.60;99.90;;;;;;4196476;28;20224;-82
2023/08/19 00:21:37;;;;;;;9.73;4.32;;;25.60;99.90;;;;;;4197977;28;20516;-82
2023/08/19 00:23:37;;;;;;;6.10;3.70;;;25.50;99.90;;;;;;4196696;28;20163;-82
2023/08/19 00:25:38;;;;;;;4.72;2.95;;;25.40;99.90;;;;;;4196574;28;20177;-82
2023/08/19 00:27:39;;;;;;;6.07;3.70;;;25.40;99.90;;;;;;4179980;28;20623;-82
2023/08/19 00:29:40;;;;;;;5.57;3.42;;;25.40;99.90;;;;;;4179862;28;20202;-82
2023/08/19 00:31:40;;;;;;;5.63;3.60;;;25.30;99.90;;;;;;4197544;28;20175;-82
2023/08/19 00:33:41;;;;;;;7.10;3.17;;;25.40;99.90;;;;;;4196440;28;20171;-82
2023/08/19 00:35:42;;;;;;;6.35;3.63;;;25.40;99.90;;;;;;4196545;28;20589;-82
2023/08/19 00:37:43;;;;;;;6.38;3.00;;;25.30;99.90;;;;;;4196304;28;20229;-82
2023/08/19 00:39:45;;;;;;;5.03;3.08;;;25.40;99.90;;;;;;4196510;28;20171;-82
2023/08/19 00:41:48;;;;;;;6.70;2.70;;;25.50;99.90;;;;;;4196566;28;20212;-82
2023/08/19 00:43:48;;;;;;;6.60;3.72;;;25.40;99.90;;;;;;4179788;28;20175;-82
2023/08/19 00:45:50;;;;;;;4.00;2.88;;;25.30;99.90;;;;;;4196492;28;20179;-82
2023/08/19 00:47:51;;;;;;;5.38;2.92;;;25.50;99.90;;;;;;4179871;28;20559;-82
2023/08/19 00:49:52;;;;;;;5.65;2.50;;;25.40;99.90;;;;;;4196410;28;20191;-82
2023/08/19 00:51:53;;;;;;;5.97;2.90;;;25.30;99.90;;;;;;4197781;28;20167;-82
2023/08/19 00:53:54;;;;;;;4.22;2.80;;;25.20;99.90;;;;;;4179790;28;20803;-82
2023/08/19 00:55:55;;;;;;;5.90;3.20;;;25.30;99.90;;;;;;4196354;28;20266;-81
2023/08/19 00:58:01;;;;;;;6.32;2.80;;;25.30;99.90;;;;;;4197736;28;20171;-82
2023/08/19 01:00:03;;;;;;;4.65;3.03;;;25.20;99.90;;;;;;4196246;28;20198;-82
2023/08/19 01:02:04;;;;;;;4.40;2.63;;;25.30;99.90;;;;;;4195885;28;20175;-82
2023/08/19 01:04:05;;;;;;;3.72;2.47;;;25.30;99.90;;;;;;4196210;28;20171;-82
2023/08/19 01:06:28;;;;;;;4.35;3.03;;;25.30;99.90;;;;;;4198471;28;20174;-82
2023/08/19 01:08:38;;;;;;;5.28;3.08;;;25.30;99.90;;;;;;4182771;28;20231;-82
2023/08/19 01:10:48;;;;;;;6.82;2.85;;;25.30;99.90;;;;;;4182459;28;20191;-82
2023/08/19 01:12:52;;;;;;;4.82;2.85;;;25.30;99.90;;;;;;4200477;28;20170;-82
2023/08/19 01:15:08;;;;;;;5.60;2.75;;;25.30;99.90;;;;;;4200505;28;20171;-82
2023/08/19 01:17:14;;;;;;;4.68;2.85;;;25.30;99.90;;;;;;4200142;28;20274;-82
2023/08/19 01:19:23;;;;;;;3.80;2.25;;;25.30;99.90;;;;;;4198931;28;20171;-82
2023/08/19 01:21:24;;;;;;;7.45;3.15;;;25.30;99.90;;;;;;4199181;28;20285;-82
2023/08/19 01:23:32;;;;;;;5.25;2.67;;;25.30;99.90;;;;;;4200455;28;20634;-82
2023/08/19 01:25:33;;;;;;;3.33;2.70;;;25.30;99.90;;;;;;4182443;28;20249;-82
2023/08/19 01:27:34;;;;;;;8.43;3.08;;;25.30;99.90;;;;;;4198904;28;20179;-82
2023/08/19 01:29:35;;;;;;;4.93;2.53;;;25.30;99.90;;;;;;4198896;28;20163;-82
2023/08/19 01:31:35;;;;;;;6.22;2.92;;;25.30;99.90;;;;;;4182331;28;20178;-82
2023/08/19 01:33:36;;;;;;;4.03;2.35;;;25.40;99.90;;;;;;4182190;28;20195;-82
2023/08/19 01:35:42;;;;;;;3.55;2.28;;;25.30;99.90;;;;;;4198853;28;20163;-82
2023/08/19 01:37:52;;;;;;;3.70;2.65;;;25.30;99.90;;;;;;4182203;28;20214;-82
2023/08/19 01:39:56;;;;;;;3.90;2.53;;;25.40;99.90;;;;;;4182394;28;20187;-83
2023/08/19 01:41:57;;;;;;;3.80;2.60;;;25.30;99.90;;;;;;4200224;28;20213;-82
2023/08/19 01:44:00;;;;;;;4.28;2.47;;;25.40;99.90;;;;;;4200113;28;20225;-82
2023/08/19 01:46:01;;;;;;;4.28;2.63;;;25.30;99.90;;;;;;4198753;28;20213;-82
2023/08/19 01:48:02;;;;;;;5.43;3.08;;;25.30;99.90;;;;;;4198643;28;20170;-82
2023/08/19 01:50:02;;;;;;;4.18;2.35;;;25.30;99.90;;;;;;4198347;28;20209;-82
2023/08/19 01:52:03;;;;;;;4.78;2.70;;;25.20;99.90;;;;;;4198722;28;20179;-82
2023/08/19 01:54:04;;;;;;;2.78;2.25;;;25.10;99.90;;;;;;4198663;28;20639;-82
2023/08/19 01:56:05;;;;;;;3.80;2.67;;;25.10;99.90;;;;;;4198413;28;20749;-81
2023/08/19 01:58:06;;;;;;;4.07;2.72;;;25.10;99.90;;;;;;4198559;28;20163;-82
2023/08/19 02:00:07;;;;;;;6.18;3.03;;;25.10;99.90;;;;;;4198371;28;20195;-82
2023/08/19 02:02:17;;;;;;;6.22;2.20;;;25.10;99.90;;;;;;4198599;28;20170;-82
2023/08/19 02:04:18;;;;;;;2.40;1.98;;;25.00;99.90;;;;;;4198128;28;20179;-82
2023/08/19 02:06:18;;;;;;;6.03;2.05;;;25.00;99.90;;;;;;4199626;28;20685;-82
2023/08/19 02:08:19;;;;;;;4.85;2.20;;;25.10;99.90;;;;;;4198378;28;20273;-82
2023/08/19 02:10:20;;;;;;;4.68;2.00;;;25.20;99.90;;;;;;4198292;28;20198;-82
2023/08/19 02:12:20;;;;;;;2.75;2.03;;;25.20;99.90;;;;;;4181814;28;20180;-82
2023/08/19 02:14:21;;;;;;;4.07;2.30;;;25.10;99.90;;;;;;4199624;28;20669;-82
2023/08/19 02:16:22;;;;;;;4.82;2.28;;;25.30;99.90;;;;;;4197839;28;20210;-82
2023/08/19 02:18:26;;;;;;;3.63;2.38;;;25.20;99.90;;;;;;4198228;28;20171;-82
2023/08/19 02:20:27;;;;;;;4.88;2.30;;;25.20;99.90;;;;;;4198092;28;20190;-82
2023/08/19 02:22:27;;;;;;;3.85;1.50;;;25.30;99.90;;;;;;4181571;28;20249;-82
2023/08/19 02:24:28;;;;;;;4.15;2.10;;;25.20;99.90;;;;;;4214617;28;20185;-82
2023/08/19 02:26:29;;;;;;;3.90;2.03;;;25.30;99.90;;;;;;4181574;28;20257;-82
2023/08/19 02:28:30;;;;;;;2.22;1.65;;;25.40;99.90;;;;;;4181389;28;20182;-82
2023/08/19 02:30:32;;;;;;;2.55;1.95;;;25.30;99.90;;;;;;4198073;28;20190;-82
2023/08/19 02:32:32;;;;;;;3.05;1.88;;;25.30;99.90;;;;;;4181392;28;20171;-82
2023/08/19 02:34:33;;;;;;;3.30;1.92;;;25.40;99.90;;;;;;4181265;28;20163;-82
2023/08/19 02:36:34;;;;;;;7.78;2.20;;;25.50;99.90;;;;;;4197576;28;20309;-82
2023/08/19 02:38:35;;;;;;;2.70;1.48;;;25.40;99.90;;;;;;4181295;28;20167;-82
2023/08/19 02:40:36;;;;;;;2.60;1.90;;;25.40;99.90;;;;;;4197740;28;20225;-82
2023/08/19 02:42:37;;;;;;;2.72;1.80;;;25.40;99.90;;;;;;4197609;28;20163;-82
2023/08/19 02:44:37;;;;;;;6.50;1.70;;;25.50;99.90;;;;;;4181283;28;20271;-82
2023/08/19 02:46:38;;;;;;;4.70;1.95;;;25.40;99.90;;;;;;4198872;28;20523;-82
2023/08/19 02:48:39;;;;;;;4.70;1.60;;;25.50;99.90;;;;;;4197611;28;20179;-82
2023/08/19 02:50:39;;;;;;;2.58;1.80;;;25.60;99.90;;;;;;4197597;28;20189;-82
2023/08/19 02:52:40;;;;;;;3.60;1.50;;;25.40;99.90;;;;;;4197501;28;20187;-82
2023/08/19 02:54:41;;;;;;;3.80;2.28;;;25.30;99.90;;;;;;4181024;28;20163;-82
2023/08/19 02:56:42;;;;;;;4.28;1.85;;;25.30;99.90;;;;;;4214237;28;20210;-82
2023/08/19 02:58:42;;;;;;;3.60;1.88;;;25.30;99.90;;;;;;4198728;28;20163;-82
2023/08/19 03:00:52;;;;;;;2.83;1.75;;;25.30;99.90;;;;;;4197376;28;20209;-82
2023/08/19 03:02:53;;;;;;;2.55;1.83;;;25.30;99.90;;;;;;4197372;28;20205;-82
2023/08/19 03:04:54;;;;;;;5.20;1.80;;;25.30;99.90;;;;;;4197605;28;20163;-82
2023/08/19 03:06:55;;;;;;;3.08;1.70;;;25.20;99.90;;;;;;4180999;28;20168;-82
2023/08/19 03:08:55;;;;;;;3.88;1.95;;;25.20;99.90;;;;;;4214258;28;20182;-82
2023/08/19 03:10:56;;;;;;;3.20;1.90;;;25.10;99.90;;;;;;4197199;28;20643;-82
2023/08/19 03:12:59;;;;;;;4.68;1.55;;;25.10;99.90;;;;;;4198613;28;20167;-82
2023/08/19 03:14:59;;;;;;;3.67;1.60;;;25.10;99.90;;;;;;4214279;28;20709;-82
2023/08/19 03:17:00;;;;;;;7.40;1.92;;;25.00;99.90;;;;;;4180624;28;20208;-82
2023/08/19 03:19:01;;;;;;;6.93;2.13;;;24.90;99.90;;;;;;4180465;28;20168;-82
2023/08/19 03:21:01;;;;;;;2.35;1.52;;;24.90;99.90;;;;;;4197178;28;20195;-82
2023/08/19 03:23:03;;;;;;;2.35;1.40;;;24.90;99.90;;;;;;4180684;28;20171;-82
2023/08/19 03:25:05;;;;;;;8.25;2.28;;;25.00;99.90;;;;;;4180619;28;20171;-82
2023/08/19 03:27:06;;;;;;;2.97;2.00;;;25.00;99.90;;;;;;4197090;28;20630;-82
2023/08/19 03:29:07;;;;;;;2.58;1.48;;;25.00;99.90;;;;;;4196522;28;20223;-82
2023/08/19 03:31:09;;;;;;;4.10;1.90;;;25.10;99.90;;;;;;4198207;28;20538;-82
2023/08/19 03:33:10;;;;;;;2.30;1.58;;;25.10;99.90;;;;;;4180396;28;20241;-82
2023/08/19 03:35:11;;;;;;;3.92;1.73;;;25.20;99.90;;;;;;4196912;28;20171;-82
2023/08/19 03:37:12;;;;;;;4.88;1.75;;;25.30;99.90;;;;;;4180333;28;20241;-82
2023/08/19 03:39:13;;;;;;;4.40;2.15;;;25.30;99.90;;;;;;4197051;28;20250;-82
2023/08/19 03:41:14;;;;;;;1.73;1.30;;;25.20;99.90;;;;;;4196848;28;20578;-82
2023/08/19 03:43:14;;;;;;;2.92;1.60;;;25.20;99.90;;;;;;4196905;28;20169;-82
2023/08/19 03:45:15;;;;;;;4.18;1.65;;;25.20;99.90;;;;;;4196973;28;20205;-82
2023/08/19 03:47:16;;;;;;;3.22;1.95;;;25.20;99.90;;;;;;4196768;28;20179;-82
2023/08/19 03:49:17;;;;;;;4.03;2.13;;;25.30;99.90;;;;;;4181050;28;20187;-82
2023/08/19 03:51:17;;;;;;;4.45;1.80;;;25.30;99.90;;;;;;4196987;28;20189;-82
2023/08/19 03:53:18;;;;;;;3.65;1.55;;;25.20;99.90;;;;;;4196904;28;20182;-82
2023/08/19 03:55:19;;;;;;;3.50;1.92;;;25.10;99.90;;;;;;4196909;28;20171;-82
2023/08/19 03:57:20;;;;;;;3.63;1.92;;;25.20;99.90;;;;;;4196581;28;20232;-82
2023/08/19 03:59:21;;;;;;;1.92;1.58;;;25.30;99.90;;;;;;4196721;28;20163;-82
2023/08/19 04:01:21;;;;;;;2.95;1.77;;;25.30;99.90;;;;;;4196652;28;20191;-82
2023/08/19 04:03:22;;;;;;;2.72;1.77;;;25.30;99.90;;;;;;4180262;28;20644;-82
2023/08/19 04:05:23;;;;;;;4.10;2.08;;;25.20;99.90;;;;;;4196375;28;20175;-85
2023/08/19 04:07:24;;;;;;;4.45;1.48;;;25.30;99.90;;;;;;4197944;28;20167;-82
2023/08/19 04:09:25;;;;;;;2.72;1.85;;;25.30;99.90;;;;;;4198090;28;20174;-82
2023/08/19 04:11:26;;;;;;;7.15;2.05;;;25.40;99.90;;;;;;4196672;28;20324;-82
2023/08/19 04:13:26;;;;;;;3.92;1.80;;;25.40;99.90;;;;;;4180138;28;20263;-82
2023/08/19 04:15:31;;;;;;;3.13;1.90;;;25.30;99.90;;;;;;4196797;28;20167;-82
2023/08/19 04:17:34;;;;;;;3.55;1.80;;;25.20;99.90;;;;;;4196409;28;20256;-82
2023/08/19 04:19:37;;;;;;;5.13;2.10;;;25.30;99.90;;;;;;4196732;28;20181;-82
2023/08/19 04:21:38;;;;;;;2.55;1.65;;;25.30;99.90;;;;;;4197821;28;20632;-82
2023/08/19 04:23:39;;;;;;;4.32;1.95;;;25.30;99.90;;;;;;4196540;28;20163;-82
2023/08/19 04:25:40;;;;;;;5.60;1.70;;;25.30;99.90;;;;;;4196331;28;20182;-82
2023/08/19 04:27:41;;;;;;;3.25;1.42;;;25.30;99.90;;;;;;4179926;28;20176;-82
2023/08/19 04:29:43;;;;;;;2.97;1.40;;;25.30;99.90;;;;;;4196381;28;20699;-82
2023/08/19 04:31:44;;;;;;;2.25;1.50;;;25.20;99.90;;;;;;4196741;28;20604;-82
2023/08/19 04:33:45;;;;;;;3.08;1.50;;;25.30;99.90;;;;;;4196622;28;20197;-81
2023/08/19 04:35:47;;;;;;;2.60;1.70;;;25.30;99.90;;;;;;4196500;28;20175;-82
2023/08/19 04:37:48;;;;;;;3.53;2.03;;;25.10;99.90;;;;;;4179724;28;20215;-82
2023/08/19 04:39:49;;;;;;;4.03;1.65;;;25.10;99.90;;;;;;4196635;28;20174;-82
2023/08/19 04:41:55;;;;;;;3.17;1.92;;;25.00;99.90;;;;;;4199087;28;20167;-82
2023/08/19 04:43:57;;;;;;;3.65;1.58;;;25.10;99.90;;;;;;4199701;28;20171;-82
2023/08/19 04:45:59;;;;;;;3.65;1.55;;;25.10;99.90;;;;;;4182832;28;20187;-82
2023/08/19 04:47:59;;;;;;;6.00;1.70;;;25.20;99.90;;;;;;4199596;28;20255;-82
2023/08/19 04:50:00;;;;;;;4.50;1.40;;;25.20;99.90;;;;;;4199655;28;20195;-82
2023/08/19 04:52:03;;;;;;;2.05;1.40;;;25.10;99.90;;;;;;4199707;28;20164;-82
2023/08/19 04:54:04;;;;;;;2.13;1.58;;;25.10;99.90;;;;;;4199514;28;20724;-82
2023/08/19 04:56:06;;;;;;;2.58;1.67;;;25.10;99.90;;;;;;4182693;28;20255;-82
2023/08/19 04:58:09;;;;;;;2.42;1.58;;;25.20;99.90;;;;;;4183270;28;20180;-82
2023/08/19 05:00:12;;;;;;;2.10;1.55;;;25.20;99.90;;;;;;4199459;28;20183;-82
2023/08/19 05:02:13;;;;;;;2.30;1.45;;;25.20;99.90;;;;;;4182933;28;20175;-82
2023/08/19 05:04:14;;;;;;;1.85;1.35;;;25.10;99.90;;;;;;4199228;28;20163;-82
2023/08/19 05:06:14;;;;;;;5.40;1.70;;;25.10;99.90;;;;;;4182763;28;20180;-82
2023/08/19 05:08:16;;;;;;;3.28;1.58;;;25.10;99.90;;;;;;4216191;28;20354;-82
2023/08/19 05:10:17;;;;;;;1.92;1.38;;;25.10;99.90;;;;;;4199008;28;20194;-82
2023/08/19 05:12:18;;;;;;;2.42;1.55;;;25.10;99.90;;;;;;4199223;28;20166;-82
2023/08/19 05:14:19;;;;;;;2.63;1.40;;;25.10;99.90;;;;;;4199320;28;20163;-82
2023/08/19 05:16:20;;;;;;;1.40;1.27;;;25.00;99.90;;;;;;4182874;28;20203;-82
2023/08/19 05:18:21;;;;;;;1.60;1.20;;;25.10;99.90;;;;;;4198869;28;20171;-82
2023/08/19 05:20:22;;;;;;;3.65;1.60;;;25.10;99.90;;;;;;4199014;28;20560;-82
2023/08/19 05:22:22;;;;;;;1.83;1.30;;;25.10;99.90;;;;;;4199394;28;20171;-82
2023/08/19 05:24:23;;;;;;;2.38;1.60;;;25.20;99.90;;;;;;4199061;28;20163;-82
2023/08/19 05:26:24;;;;;;;2.08;1.33;;;25.10;99.90;;;;;;4199118;28;20175;-81
2023/08/19 05:28:25;;;;;;;2.47;1.30;;;25.30;99.90;;;;;;4198945;28;20178;-82
2023/08/19 05:30:25;;;;;;;2.60;1.20;;;25.40;99.90;;;;;;4199019;28;20614;-82
2023/08/19 05:32:26;;;;;;;2.05;1.25;;;25.40;99.90;;;;;;4200216;28;20217;-82
2023/08/19 05:34:27;;;;;;;2.65;1.38;;;25.50;99.90;;;;;;4182324;28;20564;-82
2023/08/19 05:36:28;;;;;;;1.55;1.38;;;25.40;99.90;;;;;;4198743;28;20195;-82
2023/08/19 05:38:29;;;;;;;2.28;1.60;;;25.60;99.90;;;;;;4198981;28;20546;-82
2023/08/19 05:40:30;;;;;;;2.05;1.40;;;25.60;99.90;;;;;;4199961;28;20179;-83
2023/08/19 05:42:30;;;;;;;1.83;1.40;;;25.50;99.90;;;;;;4198879;28;20178;-82
2023/08/19 05:44:31;;;;;;;1.88;1.38;;;25.50;99.90;;;;;;4215471;28;20253;-82
2023/08/19 05:46:32;;;;;;;2.13;1.38;;;25.50;99.90;;;;;;4198776;28;20336;-82
2023/08/19 05:48:33;;;;;;;2.08;1.58;;;25.50;99.90;;;;;;4198535;28;20177;-82
2023/08/19 05:50:34;;;;;;;2.03;1.10;;;25.40;99.90;;;;;;4198594;28;20313;-82
2023/08/19 05:52:35;;;;;;;1.42;1.20;;;25.40;99.90;;;;;;4181364;28;20560;-82
2023/08/19 05:54:36;;;;;;;7.97;1.65;;;25.50;99.90;;;;;;4182120;28;20168;-82
2023/08/19 05:56:37;;;;;;;2.28;1.50;;;25.60;99.90;;;;;;4181858;28;20199;-82
2023/08/19 05:58:38;;;;;;;1.92;1.30;;;25.60;99.90;;;;;;4181935;28;20591;-82
2023/08/19 06:00:39;;;;;;;2.05;1.23;;;25.50;99.90;;;;;;4198291;28;20255;-82
2023/08/19 06:02:40;;;;;;;1.67;1.33;;;25.60;99.90;;;;;;4199668;28;20175;-82
2023/08/19 06:04:40;;;;;;;3.08;1.27;;;25.60;99.90;;;;;;4199997;28;20163;-82
2023/08/19 06:06:42;;;;;;;1.65;1.40;;;25.60;99.90;;;;;;4198613;28;20182;-82
2023/08/19 06:08:43;;;;;;;3.17;1.20;;;25.70;99.90;;;;;;4199793;28;20238;-82
2023/08/19 06:10:44;;;;;;;1.85;1.48;;;25.80;99.90;;;;;;4198380;28;20544;-82
2023/08/19 06:12:44;;;;;;;1.95;1.20;;;25.70;99.90;;;;;;4198312;28;20213;-83
2023/08/19 06:14:45;;;;;;;1.60;1.25;;;25.60;99.90;;;;;;4198325;28;20174;-82
2023/08/19 06:16:46;;;;;;;1.80;1.40;;;25.70;99.90;;;;;;4214723;28;20220;-82
2023/08/19 06:18:47;;;;;;;1.55;1.20;;;25.70;99.90;;;;;;4198305;28;20179;-82
2023/08/19 06:20:50;;;;;;;2.78;1.80;;;25.90;99.90;;;;;;4198140;28;20663;-82
2023/08/19 06:22:51;;;;;;;4.40;1.80;;;25.90;99.90;;;;;;4181707;28;20744;-82
2023/08/19 06:24:51;;;;;;;2.22;1.60;;;26.00;99.90;;;;;;4199393;28;20166;-82
2023/08/19 06:26:52;;;;;;;1.95;1.50;;;25.90;99.90;;;;;;4198168;28;20186;-82
2023/08/19 06:28:53;;;;;;;1.88;1.52;;;25.80;99.90;;;;;;4197911;28;20167;-82
2023/08/19 06:30:54;;;;;;;2.17;1.58;;;25.80;99.90;;;;;;4198018;28;20198;-82
2023/08/19 06:32:55;;;;;;;4.15;1.67;;;25.80;99.90;;;;;;4198040;28;20167;-82
2023/08/19 06:34:56;;;;;;;1.77;1.05;;;25.70;99.90;;;;;;4199261;28;20201;-82
2023/08/19 06:36:59;;;;;;;1.70;1.35;;;25.70;99.90;;;;;;4214677;28;20282;-82
2023/08/19 06:39:07;;;;;;;2.83;1.70;;;25.70;99.90;;;;;;4198012;28;20237;-82
2023/08/19 06:41:09;;;;;;;4.30;1.85;;;25.80;99.90;;;;;;4197757;28;20189;-82
2023/08/19 06:43:11;;;;;;;2.90;1.40;;;25.90;99.90;;;;;;4214585;28;20173;-82
2023/08/19 06:45:15;;;;;;;3.03;2.05;;;26.00;99.90;;;;;;4199131;28;20261;-82
2023/08/19 06:47:21;;;;;;;2.75;1.58;;;26.00;99.90;;;;;;4181089;28;20531;-82
2023/08/19 06:49:22;;;;;;;3.42;1.90;;;25.90;99.90;;;;;;4197748;28;20631;-82
2023/08/19 06:51:24;;;;;;;2.47;1.70;;;25.80;99.90;;;;;;4197660;28;20203;-82
2023/08/19 06:53:25;;;;;;;2.55;1.63;;;25.90;99.90;;;;;;4181121;28;20167;-82
2023/08/19 06:55:26;;;;;;;4.68;2.15;;;25.90;99.90;;;;;;4197340;28;20220;-82
2023/08/19 06:57:32;;;;;;;2.78;1.73;;;26.00;99.90;;;;;;4198638;28;20347;-82
2023/08/19 06:59:38;;;;;;;6.63;2.17;;;25.80;99.90;;;;;;4197276;28;20175;-82
2023/08/19 07:01:42;;;;;;;2.58;1.67;;;25.70;99.90;;;;;;4180999;28;20182;-82
2023/08/19 07:03:44;;;;;;;1.85;1.45;;;25.90;99.90;;;;;;4196473;28;20202;-82
2023/08/19 07:05:47;;;;;;;2.35;1.65;;;25.90;99.90;;;;;;4197145;28;20216;-82
2023/08/19 07:07:51;;;;;;;3.45;1.80;;;25.90;99.90;;;;;;4197493;28;20183;-82
2023/08/19 07:09:52;;;;;;;3.40;2.15;;;25.90;99.90;;;;;;4197257;28;20186;-82
2023/08/19 07:11:57;;;;;;;3.47;1.80;;;25.70;99.90;;;;;;4181023;28;20175;-82
2023/08/19 07:13:58;;;;;;;2.63;1.95;;;25.50;99.90;;;;;;4197354;28;20245;-82
2023/08/19 07:16:01;;;;;;;1.77;1.52;;;25.60;99.90;;;;;;4197291;28;20177;-82
2023/08/19 07:18:03;;;;;;;4.15;1.90;;;25.60;99.90;;;;;;4180679;28;20686;-82
2023/08/19 07:20:06;;;;;;;2.58;1.83;;;25.50;99.90;;;;;;4197457;28;20249;-82
2023/08/19 07:22:09;;;;;;;2.00;1.63;;;25.50;99.90;;;;;;4197357;28;20163;-82
2023/08/19 07:24:10;;;;;;;5.25;2.22;;;25.70;99.90;;;;;;4197174;28;20673;-82
2023/08/19 07:26:12;;;;;;;6.40;5.68;;;25.70;99.90;;;;;;4197339;28;20716;-82
2023/08/19 07:28:17;;;;;;;3.28;2.35;;;25.80;99.90;;;;;;4196970;28;20237;-82
2023/08/19 07:30:18;;;;;;;4.82;2.45;;;26.00;99.90;;;;;;4196956;28;20195;-82
2023/08/19 07:32:20;;;;;;;3.25;2.08;;;26.30;99.90;;;;;;4197103;28;20170;-82
2023/08/19 07:34:21;;;;;;;2.33;1.83;;;26.50;99.90;;;;;;4197308;28;20249;-82
2023/08/19 07:36:22;;;;;;;3.80;1.95;;;26.50;99.90;;;;;;4197092;28;20170;-82
2023/08/19 07:38:23;;;;;;;3.88;1.90;;;26.70;99.90;;;;;;4198638;28;20171;-82
2023/08/19 07:40:24;;;;;;;3.17;1.83;;;26.70;99.90;;;;;;4213824;28;20201;-83
2023/08/19 07:42:27;;;;;;;8.88;2.13;;;27.00;99.90;;;;;;4180421;28;20647;-82
2023/08/19 07:44:29;;;;;;;2.70;1.67;;;27.20;99.90;;;;;;4198275;28;20198;-83
2023/08/19 07:46:29;;;;;;;3.15;2.10;;;27.10;99.90;;;;;;4197031;28;20175;-89
2023/08/19 07:48:31;;;;;;;5.75;1.90;;;27.00;99.90;;;;;;4196766;28;20182;-82
2023/08/19 07:50:32;;;;;;;4.63;2.38;;;27.10;99.90;;;;;;4196708;28;20182;-82
2023/08/19 07:52:33;;;;;;;2.78;1.42;;;27.30;99.90;;;;;;4196931;28;20179;-82
2023/08/19 07:54:34;;;;;;;2.63;1.95;;;27.50;99.90;;;;;;4213529;28;20174;-82
2023/08/19 07:56:34;;;;;;;1.80;1.50;;;27.70;99.90;;;;;;4196839;28;20219;-82
2023/08/19 07:58:36;;;;;;;1.75;1.10;;;27.90;99.90;;;;;;4198042;28;20512;-82
2023/08/19 08:00:37;;;;;;;2.63;2.00;;;28.00;99.90;;;;;;4198000;28;20194;-82
2023/08/19 08:02:38;;;;;;;2.05;1.60;;;28.20;99.90;;;;;;4196825;28;20206;-83
2023/08/19 08:04:40;;;;;;;1.75;1.20;;;28.30;99.90;;;;;;4198272;28;20162;-82
2023/08/19 08:06:40;;;;;;;1.70;1.05;;;28.20;99.90;;;;;;4198183;28;20205;-82
2023/08/19 08:08:41;;;;;;;1.50;1.10;;;28.60;99.90;;;;;;4196818;28;20166;-83
2023/08/19 08:10:42;;;;;;;1.55;1.20;;;28.70;99.90;;;;;;4196701;28;20193;-82
2023/08/19 08:12:43;;;;;;;1.98;1.50;;;28.40;99.90;;;;;;4196865;28;20610;-82
2023/08/19 08:14:43;;;;;;;1.80;1.10;;;28.40;99.90;;;;;;4198647;28;20639;-82
2023/08/19 08:16:44;;;;;;;1.70;1.17;;;28.40;99.90;;;;;;4201592;28;20597;-82
2023/08/19 08:18:45;;;;;;;1.98;1.10;;;28.60;99.90;;;;;;4199968;28;20205;-83
2023/08/19 08:20:46;;;;;;;1.90;1.50;;;28.50;99.90;;;;;;4201176;28;20193;-82
2023/08/19 08:22:46;;;;;;;1.92;1.30;;;28.80;99.90;;;;;;4201128;28;20254;-82
2023/08/19 08:24:47;;;;;;;2.35;1.67;;;28.80;99.90;;;;;;4216778;28;20167;-82
2023/08/19 08:26:48;;;;;;;3.67;1.58;;;29.00;99.90;;;;;;4201320;28;20163;-82
2023/08/19 08:28:49;;;;;;;1.95;1.40;;;28.90;99.90;;;;;;4183435;28;20187;-83
2023/08/19 08:30:50;;;;;;;2.33;1.73;;;28.50;99.90;;;;;;4183031;28;20183;-82
2023/08/19 08:32:54;;;;;;;2.70;1.40;;;28.30;99.90;;;;;;4199987;28;20183;-82
2023/08/19 08:34:54;;;;;;;6.63;1.60;;;28.20;99.90;;;;;;4183301;28;20164;-82
2023/08/19 08:36:55;;;;;;;1.52;1.38;;;28.30;99.90;;;;;;4199742;28;20300;-83
2023/08/19 08:38:56;;;;;;;10.02;1.75;;;28.30;99.90;;;;;;4183283;28;20171;-82
2023/08/19 08:41:01;;;;;;;1.92;1.55;;;28.10;99.90;;;;;;4201048;28;20216;-82
2023/08/19 08:43:03;;;;;;;5.00;1.50;;;28.20;99.90;;;;;;4199743;28;20167;-82
2023/08/19 08:45:05;;;;;;;1.83;1.33;;;28.30;99.90;;;;;;4201179;28;20221;-83
2023/08/19 08:47:07;;;;;;;3.90;2.15;;;28.30;99.90;;;;;;4199572;28;20193;-82
2023/08/19 08:49:09;;;;;;;1.80;1.38;;;28.30;99.90;;;;;;4200840;28;20200;-83
2023/08/19 08:51:11;;;;;;;3.95;1.67;;;28.10;99.90;;;;;;4199616;28;20193;-82
2023/08/19 08:53:14;;;;;;;2.72;1.58;;;27.90;99.90;;;;;;4200816;28;20670;-82
2023/08/19 08:55:15;;;;;;;4.57;1.35;;;27.60;99.90;;;;;;4182875;28;20176;-82
2023/08/19 08:57:16;;;;;;;1.50;1.10;;;27.70;99.90;;;;;;4199075;28;20257;-82
2023/08/19 08:59:17;;;;;;;1.75;1.13;;;27.60;99.90;;;;;;4183100;28;20670;-82
2023/08/19 09:01:22;;;;;;;3.20;1.45;;;27.40;99.90;;;;;;4199375;28;20195;-82
2023/08/19 09:03:30;;;;;;;2.30;1.40;;;27.60;99.90;;;;;;4182727;28;20206;-82
2023/08/19 09:05:32;;;;;;;1.73;1.10;;;27.80;99.90;;;;;;4200606;28;20166;-82
2023/08/19 09:07:41;;;;;;;1.85;1.13;;;27.70;99.90;;;;;;4200612;28;20155;-82
2023/08/19 09:09:46;;;;;;;1.30;0.88;;;28.00;99.90;;;;;;4182627;28;20285;-82
2023/08/19 09:11:50;;;;;;;2.38;1.15;;;28.20;99.90;;;;;;4198968;28;20159;-82
2023/08/19 09:14:00;;;;;;;1.83;1.00;;;28.40;99.90;;;;;;4200446;28;20170;-82
2023/08/19 09:16:01;;;;;;;1.17;1.02;;;28.50;99.90;;;;;;4199238;28;20194;-82
2023/08/19 09:18:03;;;;;;;1.23;0.90;;;28.90;99.90;;;;;;4199129;28;20252;-83
2023/08/19 09:20:04;;;;;;;1.40;1.10;;;29.00;99.90;;;;;;4200187;28;20187;-82
2023/08/19 09:22:16;;;;;;;5.07;1.40;;;29.20;99.90;;;;;;4198996;28;20177;-82
2023/08/19 09:24:17;;;;;;;3.63;1.75;;;29.10;99.90;;;;;;4200501;28;20233;-82
2023/08/19 09:26:18;;;;;;;2.08;1.45;;;28.90;99.90;;;;;;4198440;28;20183;-82
2023/08/19 09:28:19;;;;;;;2.47;1.23;;;29.10;99.90;;;;;;4198898;28;20206;-83
2023/08/19 09:30:20;;;;;;;1.90;1.30;;;29.00;99.90;;;;;;4199063;28;20187;-83
2023/08/19 09:32:28;;;;;;;2.97;1.60;;;28.80;99.90;;;;;;4199066;28;20170;-88
2023/08/19 09:34:32;;;;;;;3.92;1.60;;;28.50;99.90;;;;;;4198750;28;20228;-83
2023/08/19 09:36:33;;;;;;;1.80;1.20;;;28.20;99.90;;;;;;4198930;28;20190;-82
2023/08/19 09:38:34;;;;;;;2.10;1.23;;;28.10;99.90;;;;;;4199017;28;20523;-82
2023/08/19 09:40:34;;;;;;;3.33;1.35;;;27.90;99.90;;;;;;4198856;28;20183;-82
2023/08/19 09:42:36;;;;;;;2.15;1.23;;;27.90;99.90;;;;;;4198762;28;20171;-82
2023/08/19 09:44:40;;;;;;;0.98;0.90;;;27.90;99.90;;;;;;4199979;28;20166;-82
2023/08/19 09:46:42;;;;;;;1.48;0.98;;;28.00;99.90;;;;;;4200024;28;20179;-82
2023/08/19 09:48:57;;;;;;;2.65;0.82;;;28.20;99.90;;;;;;4198725;28;20170;-82
2023/08/19 09:50:58;;;;;;;2.38;1.52;;;28.10;99.90;;;;;;4200037;28;20233;-82
2023/08/19 09:53:00;;;;;;;3.17;1.17;;;27.50;99.90;;;;;;4199944;28;20167;-82
2023/08/19 09:55:01;;;;;;;1.30;0.77;;;27.60;99.90;;;;;;4182056;28;20229;-82
2023/08/19 09:57:01;;;;;;;3.40;1.20;;;27.50;99.90;;;;;;4198308;28;20683;-82
2023/08/19 09:59:03;;;;;;;1.25;1.00;;;27.70;99.90;;;;;;4181962;28;20275;-82
2023/08/19 10:01:03;;;;;;;2.05;1.20;;;28.10;99.90;;;;;;4198424;28;20259;-82
2023/08/19 10:03:05;;;;;;;2.25;1.40;;;27.80;99.90;;;;;;4181949;28;20199;-83
2023/08/19 10:05:06;;;;;;;1.70;0.90;;;28.00;99.90;;;;;;4198701;28;20244;-82
2023/08/19 10:07:13;;;;;;;1.55;1.10;;;27.50;99.90;;;;;;4198344;28;20202;-82
2023/08/19 10:09:19;;;;;;;1.20;0.80;;;27.40;99.90;;;;;;4198383;28;20175;-82
2023/08/19 10:11:21;;;;;;;1.73;0.93;;;27.20;99.90;;;;;;4215152;28;20192;-82
2023/08/19 10:13:23;;;;;;;1.50;1.02;;;27.40;99.90;;;;;;4181874;28;20168;-83
2023/08/19 10:15:29;;;;;;;2.75;0.93;;;27.50;99.90;;;;;;4198531;28;20179;-82
2023/08/19 10:17:33;;;;;;;1.67;1.02;;;27.60;99.90;;;;;;4214972;28;20214;-83
2023/08/19 10:19:48;;;;;;;1.63;1.00;;;27.70;99.90;;;;;;4197862;28;20170;-82
2023/08/19 10:21:50;;;;;;;2.70;1.38;;;27.40;99.90;;;;;;4199665;28;20163;-83
2023/08/19 10:23:52;;;;;;;1.55;1.00;;;27.70;99.90;;;;;;4198250;28;20175;-82
2023/08/19 10:25:53;;;;;;;7.28;1.95;;;27.50;99.90;;;;;;4198256;28;20171;-90
2023/08/19 10:28:06;;;;;;;1.13;0.85;;;27.50;99.90;;;;;;4181823;28;20221;-82
2023/08/19 10:30:31;;;;;;;1.27;0.98;;;27.70;99.90;;;;;;4181338;28;20301;-82
2023/08/19 10:32:32;;;;;;;3.05;1.17;;;27.20;99.90;;;;;;4198204;28;20170;-83
2023/08/19 10:34:45;;;;;;;1.70;0.85;;;27.00;99.90;;;;;;4198140;28;20171;-82
2023/08/19 10:37:08;;;;;;;1.90;1.00;;;27.00;99.90;;;;;;4198130;28;20202;-82